North Dighton, MA

41° 51' 30"N, 71° 08' 44"W, Elevation 95 ft.
Eastern Time

Hourly observations for the last 72 hours

Date Time Temperature (°F) Humi-
dity

(%)
Wind
(mph)
Pressure Rain (in) Sun
(W/m2)
UV ET
(in)
Air Dew 6 Hour 1 Hr 3 Hr 6 Hr Day
Alt
(in)
Sea
Level

(mb)
Max Min
16 19:00 71.4 67.3 87 S 11 G 21 29.65 1004.2 0.00 0 0.0 0.074
16 18:00 71.3 66.9 86 SSW 8 G 22 29.66 1004.5 0.00 0 0.0 0.073
16 17:00 70.9 66.8 87 SSW 5 G 16 29.67 1004.8 0.00 26 0.0 0.070
16 16:00 72.1 66.7 83 S 17 G 29 29.69 1005.4 0.00 113 0.5 0.063
16 15:00 72.6 66.8 82 S 16 G 27 29.70 1006.0 0.00 218 1.3 0.055
16 14:00 72.4 66.2 73.2 67.6 81 S 14 G 27 29.72 1006.5 0.00 258 1.8 0.044
16 13:00 72.1 66.3 82 S 11 G 22 29.75 1007.6 0.00 232 1.7 0.034
16 12:00 72.3 66.1 81 SSW 10 G 23 29.77 1008.3 0.00 353 2.2 0.022
16 11:00 71.9 65.8 81 S 15 G 26 29.79 1008.8 0.00 519 2.5 0.011
16 10:00 71.3 66.2 84 S 12 G 22 29.81 1009.3 0.00 207 1.6 0.003
16 09:00 68.7 65.3 89 S 8 G 15 29.82 1009.8 0.00 97 0.5 0.001
16 08:00 67.6 65.2 67.6 65.8 92 S 8 G 12 29.82 1009.9 0.00 53 0.0 0.000
16 07:00 66.6 64.5 93 S 5 G 17 29.81 1009.7 0.00 0 0.0 0.000
16 06:00 66.3 63.9 92 S 6 G 11 29.81 1009.5 0.00 0 0.0 0.000
16 05:00 66.9 64.5 92 S 6 G 11 29.82 1010.0 0.00 0 0.0 0.000
16 04:00 66.7 64.3 92 S 6 G 12 29.83 1010.3 0.00 0 0.0 0.000
16 03:00 66.5 64.4 93 S 6 G 10 29.85 1010.8 0.00 0 0.0 0.000
16 02:00 65.8 63.7 65.8 64.1 93 S 5 G 11 29.85 1010.9 0.00 0 0.0 0.000
16 01:00 64.7 62.9 94 S 3 G 9 29.87 1011.6 0.00 0 0.0 0.000
16 00:00 64.7 62.6 93 S 3 G 7 29.88 1011.8 0.00 0 0.0 0.090
15 23:00 64.7 62.3 92 S 4 G 9 29.88 1012.0 0.00 0 0.0 0.090
15 22:00 64.4 62.0 92 S 4 G 10 29.90 1012.5 0.00 0 0.0 0.090
15 21:00 64.2 61.5 91 S 2 G 9 29.90 1012.5 0.00 0 0.0 0.090
15 20:00 64.2 61.2 74.3 64.1 90 S 6 G 10 29.90 1012.4 0.00 0 0.0 0.090
15 19:00 64.5 61.2 89 S 5 G 9 29.90 1012.5 0.00 0 0.0 0.090
15 18:00 65.3 61.0 86 S 10 G 12 29.89 1012.3 0.00 5 0.0 0.089
15 17:00 67.1 62.1 84 S 9 G 13 29.88 1012.0 0.00 51 0.0 0.086
15 16:00 70.3 63.8 80 S 8 G 14 29.88 1012.0 0.00 111 0.7 0.079
15 15:00 72.5 64.9 77 S 8 G 12 29.88 1011.8 0.00 206 1.2 0.066
15 14:00 73.6 66.3 73.6 53.9 78 SSW 4 G 14 29.88 1012.0 0.00 638 2.9 0.051
15 13:00 72.9 65.6 78 S 8 G 13 29.90 1012.5 0.00 721 3.1 0.039
15 12:00 72.2 64.6 77 SW 4 G 8 29.92 1013.1 0.00 673 3.7 0.025
15 11:00 71.3 63.7 77 S 2 G 9 29.92 1013.4 0.00 533 3.0 0.013
15 10:00 68.1 62.1 81 SSE 7 G 10 29.92 1013.1 0.00 468 2.0 0.004
15 09:00 62.4 60.7 94 SE 3 G 5 29.92 1013.3 0.00 255 0.8 0.000
15 08:00 53.9 53.1 55.9 51.8 97 Calm 29.92 1013.3 0.00 118 0.0 0.000
15 07:00 52.1 50.7 95 Calm 29.90 1012.5 0.00 0 0.0 0.000
15 06:00 53.0 51.9 96 Calm 29.89 1012.3 0.00 0 0.0 0.000
15 05:00 53.8 52.4 95 Calm 29.89 1012.4 0.00 0 0.0 0.000
15 04:00 54.6 53.5 96 Calm 29.88 1012.0 0.00 0 0.0 0.000
15 03:00 54.5 53.1 95 Calm 29.88 1011.9 0.00 0 0.0 0.000
15 02:00 55.8 54.4 60.2 55.4 95 Calm 29.89 1012.2 0.00 0 0.0 0.000
15 01:00 56.2 54.8 95 Calm 29.89 1012.2 0.00 0 0.0 0.000
15 00:00 55.5 54.1 95 Calm 29.88 1012.0 0.00 0 0.0 0.103
14 23:00 56.6 54.9 94 Calm 29.88 1011.8 0.00 0 0.0 0.103
14 22:00 57.9 56.2 94 Calm 29.87 1011.7 0.00 0 0.0 0.103
14 21:00 59.3 57.6 94 Calm 29.87 1011.6 0.00 0 0.0 0.103
14 20:00 60.2 58.2 73.8 60.2 93 Calm 29.88 1011.8 0.00 0 0.0 0.103
14 19:00 62.8 59.8 90 Calm 29.87 1011.6 0.00 0 0.0 0.103
14 18:00 67.7 61.7 81 E 1 G 4 29.85 1011.0 0.00 0 0.0 0.102
14 17:00 71.5 63.2 75 ENE 2 G 6 29.85 1010.9 0.00 33 0.0 0.100
14 16:00 72.7 62.4 70 NE 3 G 10 29.84 1010.6 0.00 49 0.0 0.092
14 15:00 73.7 62.9 69 NE 7 G 16 29.85 1010.8 0.00 439 1.9 0.077
14 14:00 73.7 62.5 74.2 56.0 68 N 7 G 14 29.85 1010.9 0.00 113 2.4 0.061
14 13:00 73.5 62.7 69 N 4 G 17 29.86 1011.3 0.00 615 3.5 0.044
14 12:00 73.1 62.7 70 N 10 G 17 29.86 1011.3 0.00 591 3.5 0.027
14 11:00 70.9 63.0 76 N 8 G 15 29.87 1011.7 0.00 529 2.8 0.014
14 10:00 67.5 63.2 86 NNW 6 G 10 29.88 1011.8 0.00 422 1.8 0.005
14 09:00 62.6 61.1 95 NNW 4 G 9 29.88 1011.8 0.00 269 0.8 0.001
14 08:00 56.0 55.2 56.2 53.0 97 NW 0 G 1 29.88 1011.7 0.00 98 0.0 0.000
14 07:00 54.9 53.5 95 NW 1 G 3 29.86 1011.3 0.00 5 0.0 0.000
14 06:00 55.6 54.5 96 WNW 2 G 4 29.86 1011.2 0.00 0 0.0 0.000
14 05:00 53.1 52.0 96 WNW 1 G 2 29.86 1011.3 0.00 0 0.0 0.000
14 04:00 54.2 53.1 96 NNW 0 G 1 29.86 1011.2 0.00 0 0.0 0.000
14 03:00 54.6 53.5 96 Calm 29.87 1011.5 0.00 0 0.0 0.000
14 02:00 54.8 53.4 61.5 54.7 95 S 0 G 2 29.89 1012.1 0.00 0 0.0 0.000
14 01:00 55.5 54.1 95 S 0 G 1 29.89 1012.3 0.00 0 0.0 0.000
14 00:00 58.3 56.9 95 S 2 G 4 29.90 1012.6 0.00 0 0.0 0.103
13 23:00 59.5 58.1 95 S 1 G 4 29.92 1013.3 0.00 0 0.0 0.103
13 22:00 59.9 58.2 94 S 2 G 4 29.93 1013.7 0.00 0 0.0 0.103
13 21:00 60.9 58.6 92 S 2 G 6 29.94 1014.0 0.00 0 0.0 0.103
13 20:00 61.4 58.8 74.7 61.2 91 S 2 G 7 29.93 1013.7 0.00 0 0.0 0.103

Data generated by WxSolution Version 1.9.1.8, Build 2021.02.21.